createdAt,value
2023-04-18T00:03:57.609Z,2.83
2023-04-18T00:06:39.296Z,3.00
2023-04-18T00:09:13.831Z,2.92
2023-04-18T00:11:52.183Z,2.72
2023-04-18T00:14:54.160Z,2.50
2023-04-18T00:17:33.521Z,3.30
2023-04-18T00:20:12.115Z,2.95
2023-04-18T00:23:02.502Z,2.70
2023-04-18T00:26:04.982Z,2.70
2023-04-18T00:28:45.116Z,3.13
2023-04-18T00:32:46.837Z,2.88
2023-04-18T00:35:07.068Z,2.80
2023-04-18T00:37:35.095Z,3.10
2023-04-18T00:40:02.223Z,2.65
2023-04-18T00:42:32.233Z,2.78
2023-04-18T00:45:01.669Z,2.38
2023-04-18T00:47:31.668Z,2.60
2023-04-18T00:50:28.855Z,2.65
2023-04-18T00:53:01.478Z,2.65
2023-04-18T00:55:58.962Z,2.70
2023-04-18T00:58:59.753Z,2.72
2023-04-18T01:01:47.496Z,2.40
2023-04-18T01:04:30.105Z,2.42
2023-04-18T01:09:46.691Z,2.60
2023-04-18T01:12:16.424Z,2.88
2023-04-18T01:15:12.903Z,2.60
2023-04-18T01:17:46.432Z,2.45
2023-04-18T01:20:14.014Z,2.60
2023-04-18T01:22:53.669Z,2.70
2023-04-18T01:25:43.624Z,2.67
2023-04-18T01:28:20.158Z,2.47
2023-04-18T01:33:41.291Z,2.42
2023-04-18T01:36:15.742Z,2.60
2023-04-18T01:39:06.225Z,2.45
2023-04-18T01:41:41.388Z,2.30
2023-04-18T01:44:17.972Z,2.33
2023-04-18T01:47:15.853Z,2.28
2023-04-18T01:49:52.598Z,2.58
2023-04-18T01:52:49.977Z,2.22
2023-04-18T01:55:28.865Z,2.30
2023-04-18T01:57:56.088Z,2.20
2023-04-18T02:00:24.476Z,2.30
2023-04-18T02:02:54.810Z,2.25
2023-04-18T02:05:22.005Z,2.28
2023-04-18T02:07:52.042Z,2.17
2023-04-18T02:10:28.721Z,2.28
2023-04-18T02:13:01.377Z,2.08
2023-04-18T02:15:29.704Z,2.22
2023-04-18T02:18:03.126Z,2.20
2023-04-18T02:20:37.595Z,2.22
2023-04-18T02:23:11.915Z,2.10
2023-04-18T02:25:40.024Z,2.42
2023-04-18T02:28:17.105Z,2.25
2023-04-18T02:30:44.159Z,2.30
2023-04-18T02:33:14.823Z,2.10
2023-04-18T02:35:42.750Z,2.20
2023-04-18T02:38:17.458Z,2.30
2023-04-18T02:40:44.565Z,2.40
2023-04-18T02:43:11.609Z,2.83
2023-04-18T02:45:38.836Z,2.22
2023-04-18T02:48:05.837Z,2.47
2023-04-18T02:50:32.879Z,2.63
2023-04-18T02:53:00.477Z,2.33
2023-04-18T02:55:35.788Z,2.20
2023-04-18T02:58:02.894Z,2.13
2023-04-18T03:00:29.930Z,2.17
2023-04-18T03:03:00.288Z,2.40
2023-04-18T03:05:27.346Z,2.20
2023-04-18T03:07:57.123Z,2.65
2023-04-18T03:10:24.314Z,2.30
2023-04-18T03:12:54.457Z,2.40
2023-04-18T03:15:24.362Z,2.20
2023-04-18T03:17:51.577Z,2.20
2023-04-18T03:20:21.258Z,2.45
2023-04-18T03:22:48.277Z,2.40
2023-04-18T03:25:15.782Z,2.20
2023-04-18T03:27:47.745Z,2.00
2023-04-18T03:30:15.879Z,2.20
2023-04-18T03:32:49.182Z,2.47
2023-04-18T03:35:29.931Z,2.20
2023-04-18T03:37:57.814Z,2.22
2023-04-18T03:40:25.150Z,2.20
2023-04-18T03:42:52.211Z,2.40
2023-04-18T03:45:19.133Z,2.38
2023-04-18T03:47:46.472Z,2.20
2023-04-18T03:50:13.440Z,2.40
2023-04-18T03:52:40.558Z,3.03
2023-04-18T03:55:07.812Z,2.35
2023-04-18T03:57:37.969Z,2.60
2023-04-18T04:00:06.179Z,2.50
2023-04-18T04:02:36.593Z,2.28
2023-04-18T04:05:03.870Z,2.30
2023-04-18T04:07:32.312Z,2.20
2023-04-18T04:09:59.355Z,2.85
2023-04-18T04:12:29.442Z,2.83
2023-04-18T04:15:07.663Z,2.70
2023-04-18T04:17:37.722Z,2.50
2023-04-18T04:20:05.636Z,2.50
2023-04-18T04:22:33.057Z,2.83
2023-04-18T04:25:06.832Z,2.78
2023-04-18T04:27:39.263Z,2.70
2023-04-18T04:30:11.914Z,3.03
2023-04-18T04:32:43.278Z,2.83
2023-04-18T04:35:14.596Z,2.97
2023-04-18T04:37:48.201Z,2.40
2023-04-18T04:40:15.958Z,3.40
2023-04-18T04:42:46.203Z,3.13
2023-04-18T04:45:15.947Z,2.95
2023-04-18T04:47:49.127Z,2.88
2023-04-18T04:50:16.162Z,2.80
2023-04-18T04:52:49.498Z,3.22
2023-04-18T04:55:17.709Z,3.05
2023-04-18T04:57:48.076Z,2.72
2023-04-18T05:00:21.932Z,2.70
2023-04-18T05:02:49.711Z,2.80
2023-04-18T05:05:17.929Z,2.97
2023-04-18T05:07:47.953Z,2.78
2023-04-18T05:10:25.404Z,3.10
2023-04-18T05:13:04.797Z,3.10
2023-04-18T05:15:35.298Z,3.15
2023-04-18T05:18:10.062Z,3.30
2023-04-18T05:20:38.725Z,2.88
2023-04-18T05:23:05.721Z,3.10
2023-04-18T05:25:35.921Z,3.05
2023-04-18T05:28:09.312Z,3.25
2023-04-18T05:31:04.357Z,3.30
2023-04-18T05:33:33.937Z,2.95
2023-04-18T05:36:04.334Z,3.70
2023-04-18T05:38:31.391Z,3.90
2023-04-18T05:41:00.584Z,3.35
2023-04-18T05:43:29.121Z,4.03
2023-04-18T05:45:58.957Z,4.28
2023-04-18T05:48:26.143Z,4.22
2023-04-18T05:50:59.431Z,4.20
2023-04-18T05:53:33.945Z,3.80
2023-04-18T05:56:04.004Z,4.15
2023-04-18T05:58:33.840Z,4.10
2023-04-18T06:01:01.067Z,3.55
2023-04-18T06:03:28.469Z,4.10
2023-04-18T06:06:00.499Z,4.38
2023-04-18T06:08:27.714Z,3.83
2023-04-18T06:10:54.753Z,4.25
2023-04-18T06:13:27.819Z,4.20
2023-04-18T06:15:55.004Z,3.63
2023-04-18T06:18:22.076Z,3.30
2023-04-18T06:20:49.188Z,4.10
2023-04-18T06:23:22.087Z,3.88
2023-04-18T06:25:55.410Z,4.03
2023-04-18T06:28:27.523Z,4.15
2023-04-18T06:30:57.499Z,3.80
2023-04-18T06:33:36.849Z,4.10
2023-04-18T06:36:05.790Z,4.30
2023-04-18T06:38:38.869Z,4.40
2023-04-18T06:41:05.948Z,4.30
2023-04-18T06:43:52.039Z,4.47
2023-04-18T06:46:28.735Z,5.10
2023-04-18T06:48:57.460Z,4.00
2023-04-18T06:51:24.657Z,4.68
2023-04-18T06:53:54.641Z,5.10
2023-04-18T06:56:21.902Z,4.70
2023-04-18T06:58:53.185Z,5.13
2023-04-18T07:01:20.488Z,5.05
2023-04-18T07:03:47.677Z,5.40
2023-04-18T07:06:15.910Z,5.45
2023-04-18T07:08:49.064Z,6.32
2023-04-18T07:11:18.654Z,6.60
2023-04-18T07:13:49.661Z,6.00
2023-04-18T07:16:19.982Z,6.88
2023-04-18T07:18:51.295Z,6.78
2023-04-18T07:21:25.863Z,6.70
2023-04-18T07:23:56.548Z,7.65
2023-04-18T07:26:43.294Z,7.47
2023-04-18T07:29:10.225Z,7.38
2023-04-18T07:31:39.455Z,7.90
2023-04-18T07:34:06.608Z,6.35
2023-04-18T07:36:42.461Z,7.65
2023-04-18T07:39:09.842Z,6.30
2023-04-18T07:41:36.829Z,6.03
2023-04-18T07:44:16.298Z,6.60
2023-04-18T07:46:43.782Z,8.18
2023-04-18T07:49:14.092Z,8.07
2023-04-18T07:51:44.504Z,8.48
2023-04-18T07:54:11.669Z,8.30
2023-04-18T07:56:38.916Z,8.65
2023-04-18T07:59:06.140Z,8.02
2023-04-18T08:01:33.511Z,9.15
2023-04-18T08:04:02.337Z,8.30
2023-04-18T08:06:30.996Z,8.80
2023-04-18T08:08:59.622Z,8.05
2023-04-18T08:11:32.605Z,8.40
2023-04-18T08:14:00.089Z,8.75
2023-04-18T08:16:27.702Z,8.10
2023-04-18T08:18:54.704Z,8.43
2023-04-18T08:21:24.982Z,7.93
2023-04-18T08:23:52.085Z,7.05
2023-04-18T08:26:28.261Z,6.57
2023-04-18T08:29:02.820Z,5.80
2023-04-18T08:31:31.894Z,6.75
2023-04-18T08:33:59.047Z,6.57
2023-04-18T08:36:26.649Z,6.90
2023-04-18T08:38:56.701Z,5.60
2023-04-18T08:41:27.725Z,6.10
2023-04-18T08:43:59.323Z,5.13
2023-04-18T08:46:36.120Z,5.80
2023-04-18T08:49:06.466Z,5.90
2023-04-18T08:51:34.782Z,5.50
2023-04-18T08:54:06.570Z,5.53
2023-04-18T08:56:38.060Z,5.30
2023-04-18T08:59:08.440Z,5.30
2023-04-18T09:02:07.905Z,5.07
2023-04-18T09:04:42.444Z,4.70
2023-04-18T09:07:17.273Z,4.93
2023-04-18T09:09:58.027Z,4.80
2023-04-18T09:12:28.037Z,4.90
2023-04-18T09:15:16.940Z,4.90
2023-04-18T09:17:54.427Z,4.03
2023-04-18T09:20:47.860Z,4.85
2023-04-18T09:23:34.023Z,4.70
2023-04-18T09:26:01.012Z,4.40
2023-04-18T09:28:43.149Z,4.60
2023-04-18T09:31:13.356Z,4.43
2023-04-18T09:33:57.145Z,5.35
2023-04-18T09:36:30.624Z,5.47
2023-04-18T09:39:04.506Z,5.70
2023-04-18T09:41:39.745Z,5.50
2023-04-18T09:44:25.223Z,6.00
2023-04-18T09:46:52.574Z,5.97
2023-04-18T09:49:23.617Z,5.80
2023-04-18T09:52:04.696Z,5.63
2023-04-18T09:54:38.723Z,6.43
2023-04-18T09:57:11.609Z,5.60
2023-04-18T09:59:51.816Z,6.82
2023-04-18T10:02:26.788Z,6.28
2023-04-18T10:04:56.303Z,6.47
2023-04-18T10:07:43.678Z,6.68
2023-04-18T10:10:11.066Z,5.60
2023-04-18T10:12:41.913Z,5.55
2023-04-18T10:15:11.880Z,5.93
2023-04-18T10:20:35.248Z,5.85
2023-04-18T10:23:31.262Z,5.25
2023-04-18T10:25:59.398Z,5.85
2023-04-18T10:28:33.319Z,5.20
2023-04-18T10:31:10.185Z,4.90
2023-04-18T10:34:05.114Z,5.00
2023-04-18T10:36:38.609Z,4.63
2023-04-18T10:39:57.570Z,4.68
2023-04-18T10:42:59.902Z,4.45
2023-04-18T10:45:34.184Z,5.40
2023-04-18T10:51:18.106Z,4.70
2023-04-18T10:53:57.817Z,4.32
2023-04-18T10:56:26.447Z,4.03
2023-04-18T10:59:02.168Z,4.10
2023-04-18T11:01:37.554Z,4.07
2023-04-18T11:04:14.544Z,3.55
2023-04-18T11:06:53.559Z,3.60
2023-04-18T11:09:24.244Z,3.42
2023-04-18T11:12:12.458Z,3.20
2023-04-18T11:14:45.016Z,3.15
2023-04-18T11:17:22.448Z,3.20
2023-04-18T11:19:50.373Z,3.25
2023-04-18T11:22:21.313Z,3.10
2023-04-18T11:25:14.357Z,3.00
2023-04-18T11:27:43.318Z,2.70
2023-04-18T11:30:11.722Z,2.90
2023-04-18T11:32:41.666Z,2.83
2023-04-18T11:35:12.760Z,3.08
2023-04-18T11:37:46.633Z,3.10
2023-04-18T11:40:14.642Z,2.72
2023-04-18T11:42:42.020Z,3.00
2023-04-18T11:45:21.055Z,2.70
2023-04-18T11:47:56.772Z,2.75
2023-04-18T11:50:24.013Z,3.10
2023-04-18T11:52:53.509Z,2.70
2023-04-18T11:55:23.207Z,2.83
2023-04-18T11:58:04.695Z,3.22
2023-04-18T12:00:43.661Z,3.33
2023-04-18T12:03:19.930Z,3.20
2023-04-18T12:05:51.001Z,3.17
2023-04-18T12:08:21.904Z,2.85
2023-04-18T12:10:53.917Z,3.10
2023-04-18T12:13:32.736Z,2.70
2023-04-18T12:16:02.353Z,2.80
2023-04-18T12:18:32.810Z,2.80
2023-04-18T12:21:09.023Z,3.00
2023-04-18T12:23:51.740Z,3.35
2023-04-18T12:26:20.749Z,2.55
2023-04-18T12:28:51.380Z,2.85
2023-04-18T12:31:31.195Z,2.90
2023-04-18T12:34:01.728Z,2.90
2023-04-18T12:36:39.603Z,3.00
2023-04-18T12:39:07.751Z,2.80
2023-04-18T12:41:48.962Z,3.00
2023-04-18T12:44:16.769Z,2.40
2023-04-18T12:46:46.837Z,2.72
2023-04-18T12:49:13.746Z,2.85
2023-04-18T12:52:18.733Z,2.70
2023-04-18T12:54:51.659Z,2.70
2023-04-18T12:57:26.187Z,2.65
2023-04-18T12:59:53.266Z,2.55
2023-04-18T13:02:22.156Z,2.40
2023-04-18T13:04:52.196Z,2.50
2023-04-18T13:07:19.816Z,2.63
2023-04-18T13:09:46.956Z,2.30
2023-04-18T13:12:18.631Z,2.63
2023-04-18T13:14:45.534Z,2.47
2023-04-18T13:17:16.433Z,2.58
2023-04-18T13:19:46.063Z,2.65
2023-04-18T13:22:13.152Z,2.35
2023-04-18T13:24:46.153Z,2.83
2023-04-18T13:27:20.053Z,2.67
2023-04-18T13:29:49.337Z,2.80
2023-04-18T13:32:16.359Z,2.67
2023-04-18T13:34:52.727Z,2.65
2023-04-18T13:37:19.821Z,2.55
2023-04-18T13:39:46.794Z,2.60
2023-04-18T13:42:15.927Z,2.55
2023-04-18T13:44:43.082Z,2.75
2023-04-18T13:47:09.975Z,2.50
2023-04-18T13:50:00.230Z,2.78
2023-04-18T13:52:32.128Z,2.67
2023-04-18T13:55:02.196Z,2.88
2023-04-18T13:57:37.267Z,2.53
2023-04-18T14:00:16.528Z,2.65
2023-04-18T14:02:46.818Z,2.47
2023-04-18T14:05:14.036Z,2.53
2023-04-18T14:07:45.775Z,2.97
2023-04-18T14:10:21.900Z,2.67
2023-04-18T14:12:54.954Z,2.60
2023-04-18T14:15:21.949Z,8.82
2023-04-18T14:17:55.865Z,6.18
2023-04-18T14:20:23.029Z,5.35
2023-04-18T14:23:05.006Z,8.30
2023-04-18T14:25:31.904Z,41.88
2023-04-18T14:28:24.507Z,25.45
2023-04-18T14:31:02.747Z,15.80
2023-04-18T14:33:32.758Z,13.35
2023-04-18T14:36:05.736Z,10.48
2023-04-18T14:38:38.120Z,10.15
2023-04-18T14:43:34.897Z,6.25
2023-04-18T14:46:01.732Z,5.68
2023-04-18T14:48:31.612Z,4.72
2023-04-18T14:50:59.641Z,4.20
2023-04-18T14:53:27.567Z,4.60
2023-04-18T14:55:54.946Z,3.80
2023-04-18T14:58:22.065Z,4.70
2023-04-18T15:00:58.090Z,3.53
2023-04-18T15:03:30.650Z,4.00
2023-04-18T15:05:57.979Z,3.90
2023-04-18T15:08:26.459Z,3.53
2023-04-18T15:10:53.307Z,4.07
2023-04-18T15:13:24.132Z,3.70
2023-04-18T15:15:55.750Z,3.53
2023-04-18T15:18:22.760Z,2.95
2023-04-18T15:20:49.723Z,3.53
2023-04-18T15:23:25.041Z,3.95
2023-04-18T15:25:51.841Z,2.60
2023-04-18T15:31:08.338Z,2.80
2023-04-18T15:33:38.019Z,2.30
2023-04-18T15:36:07.599Z,3.20
2023-04-18T15:38:34.475Z,4.05
2023-04-18T15:41:01.352Z,3.33
2023-04-18T15:43:32.494Z,4.05
2023-04-18T15:46:00.441Z,3.97
2023-04-18T15:48:34.648Z,4.80
2023-04-18T15:51:05.605Z,3.60
2023-04-18T15:53:32.903Z,3.75
2023-04-18T15:56:19.432Z,3.83
2023-04-18T15:58:46.793Z,3.90
2023-04-18T16:01:16.167Z,5.07
2023-04-18T16:03:43.949Z,4.38
2023-04-18T16:06:15.378Z,5.78
2023-04-18T16:08:51.588Z,4.57
2023-04-18T16:11:22.124Z,2.78
2023-04-18T16:13:53.779Z,3.78
2023-04-18T16:16:29.112Z,4.25
2023-04-18T16:18:55.913Z,3.40
2023-04-18T16:21:31.602Z,3.63
2023-04-18T16:24:06.996Z,3.70
2023-04-18T16:26:34.008Z,3.35
2023-04-18T16:29:05.737Z,3.25
2023-04-18T16:31:33.998Z,2.40
2023-04-18T16:34:16.729Z,1.90
2023-04-18T16:36:43.685Z,2.58
2023-04-18T16:39:10.615Z,2.72
2023-04-18T16:41:37.485Z,2.50
2023-04-18T16:44:04.578Z,2.13
2023-04-18T16:46:38.472Z,2.90
2023-04-18T16:49:05.825Z,3.00
2023-04-18T16:51:32.895Z,2.45
2023-04-18T16:54:07.735Z,2.03
2023-04-18T16:56:39.409Z,2.63
2023-04-18T16:59:13.169Z,2.50
2023-04-18T17:01:40.100Z,2.58
2023-04-18T17:04:10.212Z,2.72
2023-04-18T17:06:45.118Z,2.67
2023-04-18T17:09:24.064Z,2.72
2023-04-18T17:11:54.432Z,2.70
2023-04-18T17:14:25.156Z,2.45
2023-04-18T17:16:53.757Z,2.40
2023-04-18T17:19:23.835Z,2.38
2023-04-18T17:21:54.116Z,2.50
2023-04-18T17:24:33.710Z,2.25
2023-04-18T17:27:06.459Z,2.30
2023-04-18T17:29:35.319Z,2.42
2023-04-18T17:32:06.341Z,2.42
2023-04-18T17:34:43.329Z,2.40
2023-04-18T17:37:14.913Z,2.33
2023-04-18T17:39:49.137Z,2.58
2023-04-18T17:45:02.610Z,2.00
2023-04-18T17:47:33.830Z,2.10
2023-04-18T17:50:10.740Z,2.20
2023-04-18T17:52:37.999Z,2.72
2023-04-18T17:55:12.142Z,2.30
2023-04-18T17:57:43.255Z,2.65
2023-04-18T18:00:14.648Z,2.40
2023-04-18T18:02:47.719Z,2.53
2023-04-18T18:05:20.057Z,3.08
2023-04-18T18:07:48.163Z,2.60
2023-04-18T18:10:26.406Z,2.50
2023-04-18T18:12:53.184Z,2.97
2023-04-18T18:15:20.381Z,2.60
2023-04-18T18:17:51.283Z,2.90
2023-04-18T18:20:18.639Z,2.63
2023-04-18T18:22:48.747Z,2.47
2023-04-18T18:25:15.709Z,2.72
2023-04-18T18:27:42.873Z,2.60
2023-04-18T18:30:09.996Z,2.83
2023-04-18T18:32:36.973Z,2.65
2023-04-18T18:35:12.485Z,2.85
2023-04-18T18:37:53.180Z,2.88
2023-04-18T18:40:21.335Z,2.97
2023-04-18T18:42:51.585Z,3.20
2023-04-18T18:45:19.949Z,3.50
2023-04-18T18:47:52.663Z,2.72
2023-04-18T18:50:22.680Z,2.55
2023-04-18T18:52:52.602Z,2.72
2023-04-18T18:55:19.551Z,2.28
2023-04-18T18:57:56.517Z,2.85
2023-04-18T19:00:23.518Z,4.95
2023-04-18T19:02:50.551Z,5.03
2023-04-18T19:05:18.074Z,3.58
2023-04-18T19:07:46.111Z,4.53
2023-04-18T19:10:13.040Z,3.85
2023-04-18T19:12:39.906Z,3.92
2023-04-18T19:15:10.335Z,3.70
2023-04-18T19:17:40.033Z,3.45
2023-04-18T19:20:07.685Z,3.75
2023-04-18T19:22:38.241Z,3.80
2023-04-18T19:25:09.210Z,3.80
2023-04-18T19:27:36.518Z,3.88
2023-04-18T19:30:03.620Z,3.72
2023-04-18T19:32:34.653Z,3.70
2023-04-18T19:35:04.839Z,3.45
2023-04-18T19:37:34.645Z,4.18
2023-04-18T19:40:02.993Z,3.75
2023-04-18T19:42:29.952Z,4.25
2023-04-18T19:45:06.542Z,4.28
2023-04-18T19:47:34.227Z,4.32
2023-04-18T19:50:08.765Z,4.10
2023-04-18T19:52:36.548Z,3.45
2023-04-18T19:55:03.570Z,3.88
2023-04-18T19:57:39.161Z,4.80
2023-04-18T20:00:16.210Z,4.53
2023-04-18T20:02:44.696Z,3.65
2023-04-18T20:05:13.194Z,5.13
2023-04-18T20:07:43.194Z,6.10
2023-04-18T20:10:16.237Z,5.97
2023-04-18T20:12:50.217Z,5.40
2023-04-18T20:15:17.252Z,5.60
2023-04-18T20:17:44.093Z,6.32
2023-04-18T20:20:14.283Z,6.93
2023-04-18T20:22:48.049Z,6.57
2023-04-18T20:25:14.932Z,6.80
2023-04-18T20:27:54.503Z,6.20
2023-04-18T20:30:22.499Z,6.00
2023-04-18T20:32:52.555Z,5.70
2023-04-18T20:35:28.516Z,6.38
2023-04-18T20:37:55.772Z,6.05
2023-04-18T20:40:30.598Z,5.70
2023-04-18T20:43:07.024Z,6.00
2023-04-18T20:45:37.832Z,5.80
2023-04-18T20:48:10.936Z,5.50
2023-04-18T20:50:44.057Z,5.82
2023-04-18T20:53:13.944Z,5.45
2023-04-18T20:55:44.046Z,6.20
2023-04-18T20:58:14.992Z,5.78
2023-04-18T21:00:50.483Z,5.45
2023-04-18T21:03:19.939Z,5.28
2023-04-18T21:05:47.230Z,5.40
2023-04-18T21:08:14.158Z,5.50
2023-04-18T21:10:41.056Z,5.30
2023-04-18T21:13:13.124Z,5.50
2023-04-18T21:15:55.010Z,5.25
2023-04-18T21:18:31.128Z,5.72
2023-04-18T21:21:08.730Z,5.20
2023-04-18T21:23:42.251Z,5.43
2023-04-18T21:26:17.016Z,5.05
2023-04-18T21:29:04.965Z,4.90
2023-04-18T21:31:34.291Z,5.00
2023-04-18T21:34:05.338Z,4.60
2023-04-18T21:39:27.110Z,5.00
2023-04-18T21:42:09.114Z,5.10
2023-04-18T21:44:36.745Z,4.20
2023-04-18T21:47:06.745Z,4.68
2023-04-18T21:49:56.760Z,4.55
2023-04-18T21:52:23.693Z,4.50
2023-04-18T21:54:59.244Z,4.55
2023-04-18T21:57:33.713Z,5.00
2023-04-18T22:00:16.750Z,4.22
2023-04-18T22:02:45.115Z,4.85
2023-04-18T22:05:20.169Z,5.80
2023-04-18T22:07:57.379Z,4.55
2023-04-18T22:10:26.201Z,5.00
2023-04-18T22:12:54.600Z,5.20
2023-04-18T22:15:22.115Z,5.68
2023-04-18T22:17:50.567Z,5.13
2023-04-18T22:20:23.762Z,5.55
2023-04-18T22:22:59.476Z,5.10
2023-04-18T22:25:31.416Z,5.45
2023-04-18T22:28:06.308Z,5.30
2023-04-18T22:30:41.327Z,5.65
2023-04-18T22:33:17.209Z,5.28
2023-04-18T22:35:44.104Z,5.63
2023-04-18T22:38:13.601Z,5.50
2023-04-18T22:40:41.787Z,5.40
2023-04-18T22:43:11.895Z,5.22
2023-04-18T22:45:45.043Z,5.20
2023-04-18T22:48:13.632Z,5.28
2023-04-18T22:50:43.802Z,5.70
2023-04-18T22:53:17.759Z,6.00
2023-04-18T22:55:55.634Z,6.30
2023-04-18T22:58:37.646Z,6.63
2023-04-18T23:01:04.647Z,5.72
2023-04-18T23:03:40.789Z,5.07
2023-04-18T23:06:08.250Z,5.18
2023-04-18T23:08:44.396Z,5.70
2023-04-18T23:11:13.693Z,4.97
2023-04-18T23:13:52.008Z,5.75
2023-04-18T23:16:18.968Z,5.10
2023-04-18T23:18:45.938Z,4.55
2023-04-18T23:21:17.896Z,4.07
2023-04-18T23:23:52.660Z,4.25
2023-04-18T23:26:22.646Z,4.47
2023-04-18T23:29:18.788Z,4.50
2023-04-18T23:31:45.749Z,4.30
2023-04-18T23:34:18.565Z,4.00
2023-04-18T23:36:53.455Z,6.13
2023-04-18T23:39:21.847Z,3.60
2023-04-18T23:41:56.038Z,3.67
2023-04-18T23:44:23.298Z,3.85
2023-04-18T23:46:50.947Z,3.65
2023-04-18T23:49:17.949Z,3.30
2023-04-18T23:54:34.350Z,3.50
2023-04-18T23:57:02.032Z,3.88
2023-04-18T23:59:28.969Z,3.55
